createdAt,value
2022-11-22T00:00:35.327Z,1.45
2022-11-22T00:03:02.479Z,1.30
2022-11-22T00:05:29.664Z,1.73
2022-11-22T00:07:56.804Z,1.17
2022-11-22T00:10:24.182Z,1.40
2022-11-22T00:12:51.412Z,1.25
2022-11-22T00:15:18.764Z,1.00
2022-11-22T00:17:45.993Z,0.98
2022-11-22T00:20:13.785Z,1.23
2022-11-22T00:22:44.469Z,0.80
2022-11-22T00:25:12.864Z,1.07
2022-11-22T00:27:40.329Z,0.82
2022-11-22T00:30:08.579Z,1.23
2022-11-22T00:32:35.892Z,1.27
2022-11-22T00:35:03.478Z,1.00
2022-11-22T00:37:30.597Z,1.25
2022-11-22T00:39:57.840Z,1.17
2022-11-22T00:42:25.762Z,1.85
2022-11-22T00:44:52.942Z,1.23
2022-11-22T00:47:20.125Z,1.27
2022-11-22T00:49:47.224Z,1.42
2022-11-22T00:52:14.619Z,0.88
2022-11-22T00:54:41.934Z,1.30
2022-11-22T00:57:09.110Z,0.63
2022-11-22T00:59:36.227Z,0.98
2022-11-22T01:02:03.519Z,1.40
2022-11-22T01:04:30.683Z,1.10
2022-11-22T01:06:57.806Z,2.08
2022-11-22T01:09:25.375Z,1.58
2022-11-22T01:11:52.836Z,0.77
2022-11-22T01:14:20.783Z,1.83
2022-11-22T01:16:48.482Z,1.35
2022-11-22T01:19:15.946Z,1.10
2022-11-22T01:21:43.146Z,1.42
2022-11-22T01:24:10.579Z,1.00
2022-11-22T01:26:37.695Z,1.27
2022-11-22T01:29:05.273Z,0.90
2022-11-22T01:31:32.706Z,1.02
2022-11-22T01:34:00.016Z,1.20
2022-11-22T01:36:27.854Z,0.98
2022-11-22T01:38:55.307Z,1.05
2022-11-22T01:41:23.133Z,0.80
2022-11-22T01:43:50.260Z,0.80
2022-11-22T01:46:37.394Z,1.40
2022-11-22T01:49:14.507Z,0.93
2022-11-22T01:51:44.692Z,0.73
2022-11-22T01:54:16.854Z,1.27
2022-11-22T01:56:48.754Z,0.80
2022-11-22T01:59:19.621Z,1.00
2022-11-22T02:01:46.880Z,0.68
2022-11-22T02:04:17.468Z,0.70
2022-11-22T02:07:03.719Z,1.10
2022-11-22T02:09:32.807Z,1.27
2022-11-22T02:12:03.829Z,0.88
2022-11-22T02:14:31.484Z,1.15
2022-11-22T02:16:58.572Z,0.93
2022-11-22T02:19:42.548Z,0.65
2022-11-22T02:22:40.643Z,0.32
2022-11-22T02:25:37.534Z,0.73
2022-11-22T02:28:05.090Z,0.57
2022-11-22T02:30:32.178Z,1.23
2022-11-22T02:32:59.315Z,0.80
2022-11-22T02:35:28.752Z,0.60
2022-11-22T02:38:12.987Z,0.60
2022-11-22T02:40:49.427Z,0.70
2022-11-22T02:43:32.873Z,0.70
2022-11-22T02:46:15.901Z,0.70
2022-11-22T02:48:44.241Z,0.98
2022-11-22T02:51:16.745Z,0.70
2022-11-22T02:53:44.374Z,0.60
2022-11-22T02:56:11.462Z,1.17
2022-11-22T02:58:38.657Z,0.55
2022-11-22T03:01:06.018Z,0.55
2022-11-22T03:03:33.594Z,0.77
2022-11-22T03:06:02.426Z,0.80
2022-11-22T03:08:29.879Z,0.90
2022-11-22T03:11:00.580Z,1.02
2022-11-22T03:13:27.759Z,0.60
2022-11-22T03:15:54.896Z,1.10
2022-11-22T03:18:22.041Z,0.57
2022-11-22T03:20:49.168Z,0.90
2022-11-22T03:23:16.577Z,0.65
2022-11-22T03:25:43.697Z,0.95
2022-11-22T03:28:11.461Z,0.73
2022-11-22T03:30:42.387Z,0.57
2022-11-22T03:33:10.000Z,0.95
2022-11-22T03:35:37.390Z,1.05
2022-11-22T03:38:04.797Z,0.70
2022-11-22T03:40:32.192Z,0.65
2022-11-22T03:43:03.394Z,1.40
2022-11-22T03:45:31.002Z,0.73
2022-11-22T03:47:58.221Z,0.57
2022-11-22T03:50:25.903Z,1.02
2022-11-22T03:52:52.991Z,1.05
2022-11-22T03:55:20.316Z,0.65
2022-11-22T03:57:47.500Z,0.73
2022-11-22T04:00:15.216Z,0.90
2022-11-22T04:02:44.022Z,0.93
2022-11-22T04:05:11.133Z,0.60
2022-11-22T04:07:38.333Z,0.70
2022-11-22T04:10:06.476Z,0.55
2022-11-22T04:12:33.843Z,0.68
2022-11-22T04:15:07.015Z,0.60
2022-11-22T04:17:40.865Z,0.50
2022-11-22T04:20:32.551Z,1.02
2022-11-22T04:23:07.592Z,1.00
2022-11-22T04:25:36.155Z,0.70
2022-11-22T04:28:04.292Z,0.75
2022-11-22T04:30:50.544Z,0.60
2022-11-22T04:33:18.087Z,0.82
2022-11-22T04:35:45.686Z,0.70
2022-11-22T04:38:13.670Z,0.45
2022-11-22T04:40:40.978Z,0.68
2022-11-22T04:43:28.460Z,0.70
2022-11-22T04:45:55.534Z,0.57
2022-11-22T04:48:22.670Z,0.65
2022-11-22T04:51:08.048Z,0.52
2022-11-22T04:53:35.327Z,0.50
2022-11-22T04:56:02.356Z,0.68
2022-11-22T04:58:29.580Z,0.90
2022-11-22T05:00:56.739Z,0.90
2022-11-22T05:03:23.926Z,0.60
2022-11-22T05:05:51.126Z,0.70
2022-11-22T05:08:18.333Z,0.80
2022-11-22T05:11:02.221Z,0.73
2022-11-22T05:13:38.233Z,0.75
2022-11-22T05:16:07.599Z,0.80
2022-11-22T05:18:35.155Z,0.50
2022-11-22T05:21:07.323Z,1.10
2022-11-22T05:23:52.839Z,0.40
2022-11-22T05:26:21.043Z,0.63
2022-11-22T05:28:48.189Z,0.90
2022-11-22T05:31:24.168Z,0.60
2022-11-22T05:33:53.206Z,0.77
2022-11-22T05:36:21.544Z,0.60
2022-11-22T05:38:48.690Z,0.70
2022-11-22T05:41:16.883Z,0.82
2022-11-22T05:43:44.608Z,0.80
2022-11-22T05:46:23.554Z,0.68
2022-11-22T05:48:52.626Z,0.70
2022-11-22T05:51:22.707Z,0.57
2022-11-22T05:53:50.010Z,0.77
2022-11-22T05:56:23.004Z,0.45
2022-11-22T05:58:51.026Z,0.85
2022-11-22T06:01:20.643Z,0.40
2022-11-22T06:03:48.377Z,0.77
2022-11-22T06:06:16.197Z,0.57
2022-11-22T06:08:46.912Z,0.50
2022-11-22T06:11:25.633Z,0.52
2022-11-22T06:13:58.605Z,0.68
2022-11-22T06:16:27.042Z,0.30
2022-11-22T06:18:54.915Z,0.57
2022-11-22T06:21:24.705Z,0.68
2022-11-22T06:23:53.942Z,0.60
2022-11-22T06:26:22.714Z,0.50
2022-11-22T06:28:50.295Z,0.22
2022-11-22T06:31:20.107Z,0.50
2022-11-22T06:33:47.664Z,0.50
2022-11-22T06:36:21.005Z,0.50
2022-11-22T06:38:48.414Z,0.65
2022-11-22T06:41:17.973Z,0.50
2022-11-22T06:43:49.004Z,0.70
2022-11-22T06:46:21.738Z,1.45
2022-11-22T06:51:22.318Z,0.50
2022-11-22T06:53:50.447Z,0.52
2022-11-22T06:56:22.056Z,0.50
2022-11-22T06:58:51.107Z,0.55
2022-11-22T07:01:26.481Z,0.52
2022-11-22T07:03:58.736Z,0.55
2022-11-22T07:06:34.460Z,0.82
2022-11-22T07:09:03.596Z,0.85
2022-11-22T07:11:32.446Z,1.00
2022-11-22T07:14:07.793Z,0.80
2022-11-22T07:16:37.391Z,0.60
2022-11-22T07:19:05.145Z,0.60
2022-11-22T07:21:32.650Z,0.88
2022-11-22T07:24:00.241Z,1.17
2022-11-22T07:26:28.629Z,0.40
2022-11-22T07:28:56.199Z,0.52
2022-11-22T07:31:23.572Z,0.55
2022-11-22T07:33:50.838Z,2.38
2022-11-22T07:36:22.911Z,0.70
2022-11-22T07:38:50.765Z,0.80
2022-11-22T07:41:19.095Z,0.70
2022-11-22T07:43:47.227Z,0.63
2022-11-22T07:46:29.302Z,1.00
2022-11-22T07:48:56.958Z,0.75
2022-11-22T07:51:24.548Z,0.82
2022-11-22T07:53:51.685Z,0.70
2022-11-22T07:56:19.134Z,0.63
2022-11-22T07:58:46.406Z,0.90
2022-11-22T08:01:16.704Z,1.00
2022-11-22T08:03:45.005Z,0.43
2022-11-22T08:06:13.183Z,0.90
2022-11-22T08:08:40.648Z,0.60
2022-11-22T08:11:07.983Z,1.15
2022-11-22T08:13:36.007Z,1.05
2022-11-22T08:16:06.412Z,1.20
2022-11-22T08:18:34.746Z,0.77
2022-11-22T08:21:06.609Z,1.60
2022-11-22T08:23:34.106Z,1.13
2022-11-22T08:26:01.327Z,1.33
2022-11-22T08:28:28.566Z,1.42
2022-11-22T08:31:22.323Z,1.00
2022-11-22T08:33:54.244Z,1.25
2022-11-22T08:36:21.759Z,0.95
2022-11-22T08:38:48.885Z,1.35
2022-11-22T08:41:17.120Z,1.15
2022-11-22T08:43:44.703Z,0.88
2022-11-22T08:46:12.062Z,1.33
2022-11-22T08:48:39.239Z,1.08
2022-11-22T08:51:09.080Z,1.00
2022-11-22T08:53:42.231Z,0.90
2022-11-22T08:56:12.674Z,1.05
2022-11-22T08:58:40.239Z,0.98
2022-11-22T09:01:09.715Z,1.00
2022-11-22T09:03:37.917Z,1.05
2022-11-22T09:09:22.173Z,1.00
2022-11-22T09:11:47.091Z,1.55
2022-11-22T09:14:14.227Z,1.42
2022-11-22T09:16:41.356Z,1.40
2022-11-22T09:19:08.447Z,0.75
2022-11-22T09:21:35.540Z,0.65
2022-11-22T09:24:02.695Z,0.98
2022-11-22T09:26:30.258Z,1.02
2022-11-22T09:28:57.549Z,1.10
2022-11-22T09:31:25.088Z,0.80
2022-11-22T09:33:52.508Z,1.10
2022-11-22T09:36:26.580Z,1.00
2022-11-22T09:38:54.444Z,1.48
2022-11-22T09:41:52.210Z,0.65
2022-11-22T09:44:41.249Z,0.70
2022-11-22T09:47:08.355Z,0.85
2022-11-22T09:49:55.694Z,1.10
2022-11-22T09:52:37.935Z,1.02
2022-11-22T09:55:32.072Z,0.90
2022-11-22T09:58:24.022Z,1.67
2022-11-22T10:00:52.792Z,0.88
2022-11-22T10:04:01.260Z,0.70
2022-11-22T10:06:34.697Z,1.00
2022-11-22T10:09:27.794Z,1.10
2022-11-22T10:11:57.582Z,0.70
2022-11-22T10:14:38.296Z,1.50
2022-11-22T10:17:25.605Z,1.20
2022-11-22T10:20:19.590Z,0.75
2022-11-22T10:22:47.914Z,1.08
2022-11-22T10:25:19.207Z,1.08
2022-11-22T10:28:00.398Z,1.10
2022-11-22T10:30:33.673Z,1.23
2022-11-22T10:33:15.365Z,1.60
2022-11-22T10:35:58.870Z,1.48
2022-11-22T10:38:41.218Z,1.10
2022-11-22T10:41:23.955Z,2.72
2022-11-22T10:44:17.001Z,1.17
2022-11-22T10:46:57.289Z,0.85
2022-11-22T10:49:33.553Z,1.60
2022-11-22T10:52:24.787Z,1.20
2022-11-22T10:55:16.122Z,0.90
2022-11-22T10:57:57.404Z,1.40
2022-11-22T11:00:26.214Z,1.20
2022-11-22T11:03:21.208Z,4.10
2022-11-22T11:06:21.620Z,1.70
2022-11-22T11:09:54.918Z,3.42
2022-11-22T11:11:52.229Z,4.20
2022-11-22T11:14:33.050Z,3.10
2022-11-22T11:17:02.525Z,2.20
2022-11-22T11:19:34.161Z,22.27
2022-11-22T11:22:08.545Z,30.60
2022-11-22T11:24:40.033Z,8.88
2022-11-22T11:27:09.770Z,12.43
2022-11-22T11:29:45.499Z,7.53
2022-11-22T11:32:16.658Z,9.02
2022-11-22T11:34:54.974Z,11.15
2022-11-22T11:37:29.584Z,6.65
2022-11-22T11:39:56.764Z,6.38
2022-11-22T11:42:28.286Z,2.80
2022-11-22T11:45:15.856Z,2.40
2022-11-22T11:47:42.940Z,2.28
2022-11-22T11:50:24.596Z,3.15
2022-11-22T11:53:05.315Z,5.82
2022-11-22T11:55:35.461Z,2.25
2022-11-22T11:58:16.305Z,10.00
2022-11-22T12:00:45.734Z,9.93
2022-11-22T12:03:19.630Z,61.70
2022-11-22T12:05:46.749Z,65.70
2022-11-22T12:08:29.622Z,78.55
2022-11-22T12:11:05.441Z,68.20
2022-11-22T12:14:12.440Z,20.30
2022-11-22T12:16:51.147Z,4.40
2022-11-22T12:22:48.127Z,10.57
2022-11-22T12:25:32.609Z,2.80
2022-11-22T12:28:10.192Z,4.13
2022-11-22T12:30:40.174Z,1.60
2022-11-22T12:33:18.275Z,1.45
2022-11-22T12:35:46.562Z,2.30
2022-11-22T12:38:21.469Z,2.28
2022-11-22T12:40:55.208Z,4.10
2022-11-22T12:43:24.736Z,6.32
2022-11-22T12:46:26.272Z,15.43
2022-11-22T12:48:23.023Z,2.88
2022-11-22T12:48:58.653Z,12.15
2022-11-22T12:51:49.325Z,9.55
2022-11-22T12:54:24.166Z,3.95
2022-11-22T12:56:58.366Z,6.07
2022-11-22T12:59:38.761Z,12.20
2022-11-22T13:02:20.862Z,9.40
2022-11-22T13:05:03.217Z,21.20
2022-11-22T13:10:35.820Z,8.30
2022-11-22T13:13:04.975Z,7.68
2022-11-22T13:15:36.655Z,7.47
2022-11-22T13:18:09.803Z,6.38
2022-11-22T13:20:45.201Z,8.48
2022-11-22T13:23:50.109Z,8.95
2022-11-22T13:26:52.452Z,9.60
2022-11-22T13:29:26.003Z,6.20
2022-11-22T13:32:06.787Z,4.90
2022-11-22T13:34:36.323Z,9.80
2022-11-22T13:37:17.105Z,4.15
2022-11-22T13:39:47.578Z,4.72
2022-11-22T13:42:34.946Z,5.82
2022-11-22T13:45:01.981Z,5.13
2022-11-22T13:47:34.836Z,3.97
2022-11-22T13:50:01.966Z,2.05
2022-11-22T13:52:52.988Z,1.58
2022-11-22T13:55:34.848Z,1.10
2022-11-22T13:58:26.301Z,0.77
2022-11-22T14:00:59.978Z,1.58
2022-11-22T14:03:35.130Z,20.92
2022-11-22T14:06:23.223Z,2.60
2022-11-22T14:09:28.837Z,3.65
2022-11-22T14:12:04.974Z,5.47
2022-11-22T14:15:08.649Z,2.90
2022-11-22T14:17:59.324Z,13.18
2022-11-22T14:20:55.832Z,10.80
2022-11-22T14:23:49.351Z,4.18
2022-11-22T14:26:41.762Z,14.20
2022-11-22T14:29:49.392Z,3.92
2022-11-22T14:32:23.161Z,9.82
2022-11-22T14:35:05.247Z,2.55
2022-11-22T14:37:32.561Z,4.32
2022-11-22T14:40:08.630Z,5.80
2022-11-22T14:42:35.801Z,5.95
2022-11-22T14:45:46.077Z,1.70
2022-11-22T14:48:19.715Z,2.65
2022-11-22T14:51:14.981Z,4.35
2022-11-22T14:53:53.076Z,3.10
2022-11-22T14:56:25.215Z,3.17
2022-11-22T14:58:52.275Z,3.03
2022-11-22T15:01:36.104Z,4.05
2022-11-22T15:09:10.681Z,2.10
2022-11-22T15:09:21.291Z,3.40
2022-11-22T15:10:59.667Z,2.83
2022-11-22T15:14:10.532Z,14.95
2022-11-22T15:57:32.740Z,10.55
2022-11-22T16:00:00.907Z,19.27
2022-11-22T16:02:30.834Z,30.83
2022-11-22T16:06:10.443Z,31.48
2022-11-22T16:07:55.992Z,22.02
2022-11-22T16:10:37.674Z,31.65
2022-11-22T16:13:20.228Z,19.92
2022-11-22T16:18:33.169Z,8.48
2022-11-22T16:21:02.287Z,6.32
2022-11-22T16:23:31.824Z,9.57
2022-11-22T16:26:34.743Z,10.73
2022-11-22T16:29:26.325Z,10.10
2022-11-22T16:32:19.924Z,37.15
2022-11-22T16:34:51.579Z,20.92
2022-11-22T16:37:38.233Z,20.98
2022-11-22T16:40:07.443Z,15.10
2022-11-22T16:42:38.006Z,15.32
2022-11-22T16:45:06.653Z,9.50
2022-11-22T16:47:33.721Z,6.40
2022-11-22T16:50:00.807Z,7.97
2022-11-22T16:52:27.853Z,5.07
2022-11-22T16:54:54.940Z,3.88
2022-11-22T16:57:22.091Z,5.05
2022-11-22T16:59:49.175Z,3.88
2022-11-22T17:02:17.465Z,3.80
2022-11-22T17:04:46.093Z,2.92
2022-11-22T17:07:14.675Z,4.40
2022-11-22T17:09:42.094Z,7.97
2022-11-22T17:12:23.386Z,8.70
2022-11-22T17:14:51.922Z,13.32
2022-11-22T17:17:20.491Z,12.38
2022-11-22T17:19:55.405Z,13.25
2022-11-22T17:22:22.601Z,15.80
2022-11-22T17:24:49.678Z,25.63
2022-11-22T17:27:16.859Z,17.50
2022-11-22T17:29:51.481Z,23.17
2022-11-22T17:32:19.793Z,20.60
2022-11-22T17:34:47.029Z,21.25
2022-11-22T17:37:14.223Z,14.68
2022-11-22T17:39:41.555Z,15.57
2022-11-22T17:42:08.778Z,25.55
2022-11-22T17:44:35.886Z,20.23
2022-11-22T17:47:03.014Z,19.23
2022-11-22T17:49:30.545Z,12.05
2022-11-22T17:51:57.966Z,9.95
2022-11-22T17:54:25.088Z,9.30
2022-11-22T17:56:52.339Z,8.10
2022-11-22T17:59:19.411Z,11.13
2022-11-22T18:01:46.482Z,10.48
2022-11-22T18:04:14.716Z,15.20
2022-11-22T18:06:41.919Z,11.98
2022-11-22T18:09:09.221Z,9.65
2022-11-22T18:11:36.388Z,6.93
2022-11-22T18:14:03.691Z,14.00
2022-11-22T18:16:31.298Z,12.38
2022-11-22T18:18:59.313Z,7.85
2022-11-22T18:21:29.553Z,52.67
2022-11-22T18:23:58.686Z,41.30
2022-11-22T18:26:42.251Z,30.42
2022-11-22T18:31:59.743Z,16.95
2022-11-22T18:34:27.960Z,10.50
2022-11-22T18:37:02.603Z,14.85
2022-11-22T18:39:37.039Z,10.60
2022-11-22T18:42:06.051Z,8.63
2022-11-22T18:44:33.778Z,10.02
2022-11-22T18:47:01.167Z,9.23
2022-11-22T18:49:28.290Z,7.28
2022-11-22T18:51:56.003Z,9.38
2022-11-22T18:54:23.501Z,9.70
2022-11-22T18:56:53.970Z,7.38
2022-11-22T18:59:21.369Z,25.55
2022-11-22T19:01:48.570Z,17.35
2022-11-22T19:04:16.198Z,11.90
2022-11-22T19:06:44.248Z,10.30
2022-11-22T19:09:11.477Z,9.65
2022-11-22T19:11:39.024Z,11.07
2022-11-22T19:14:06.487Z,6.40
2022-11-22T19:16:33.739Z,7.85
2022-11-22T19:19:00.893Z,7.40
2022-11-22T19:21:29.836Z,8.05
2022-11-22T19:23:57.431Z,8.82
2022-11-22T19:26:26.663Z,6.30
2022-11-22T19:28:56.162Z,5.35
2022-11-22T19:31:29.169Z,6.15
2022-11-22T19:33:57.259Z,5.10
2022-11-22T19:36:32.293Z,5.85
2022-11-22T19:39:00.394Z,5.13
2022-11-22T19:41:27.569Z,4.72
2022-11-22T19:43:56.269Z,4.38
2022-11-22T19:46:24.518Z,5.05
2022-11-22T19:48:53.080Z,6.30
2022-11-22T19:51:21.052Z,8.15
2022-11-22T19:53:48.681Z,7.47
2022-11-22T19:56:18.147Z,6.35
2022-11-22T19:58:50.873Z,5.75
2022-11-22T20:01:18.821Z,5.85
2022-11-22T20:03:46.059Z,5.78
2022-11-22T20:06:14.421Z,5.60
2022-11-22T20:08:41.692Z,6.03
2022-11-22T20:11:11.804Z,6.68
2022-11-22T20:13:41.517Z,6.03
2022-11-22T20:16:11.473Z,6.80
2022-11-22T20:18:38.669Z,5.63
2022-11-22T20:21:09.191Z,15.13
2022-11-22T20:23:36.795Z,57.17
2022-11-22T20:26:15.130Z,35.85
2022-11-22T20:28:44.175Z,30.88
2022-11-22T20:31:16.947Z,46.17
2022-11-22T20:33:46.724Z,35.22
2022-11-22T20:36:20.395Z,40.72
2022-11-22T20:38:49.380Z,21.50
2022-11-22T20:41:18.691Z,67.88
2022-11-22T20:43:46.260Z,34.75
2022-11-22T20:46:22.093Z,22.58
2022-11-22T20:48:49.653Z,15.45
2022-11-22T20:51:23.911Z,13.18
2022-11-22T20:53:51.564Z,11.15
2022-11-22T20:56:19.231Z,9.80
2022-11-22T20:58:46.700Z,7.97
2022-11-22T21:01:27.286Z,7.72
2022-11-22T21:03:55.456Z,6.90
2022-11-22T21:06:24.192Z,6.25
2022-11-22T21:08:51.438Z,4.80
2022-11-22T21:11:22.325Z,5.35
2022-11-22T21:13:50.275Z,5.45
2022-11-22T21:16:23.758Z,5.43
2022-11-22T21:18:58.403Z,4.35
2022-11-22T21:21:26.100Z,5.20
2022-11-22T21:23:55.470Z,5.25
2022-11-22T21:26:24.423Z,4.63
2022-11-22T21:28:52.779Z,5.45
2022-11-22T21:31:21.306Z,5.05
2022-11-22T21:33:49.097Z,4.32
2022-11-22T21:36:16.419Z,4.43
2022-11-22T21:38:43.577Z,3.97
2022-11-22T21:44:06.517Z,4.95
2022-11-22T21:46:33.628Z,4.05
2022-11-22T21:49:00.755Z,3.67
2022-11-22T21:51:27.906Z,4.75
2022-11-22T21:53:58.929Z,4.38
2022-11-22T21:56:27.072Z,4.65
2022-11-22T21:58:54.804Z,4.82
2022-11-22T22:01:22.545Z,4.30
2022-11-22T22:03:49.969Z,5.15
2022-11-22T22:06:17.154Z,4.43
2022-11-22T22:08:44.425Z,4.03
2022-11-22T22:11:12.471Z,5.00
2022-11-22T22:13:39.659Z,3.65
2022-11-22T22:16:07.343Z,5.03
2022-11-22T22:18:36.882Z,4.30
2022-11-22T22:21:07.277Z,5.10
2022-11-22T22:23:35.711Z,4.68
2022-11-22T22:26:05.080Z,4.22
2022-11-22T22:28:35.261Z,5.30
2022-11-22T22:31:09.573Z,3.80
2022-11-22T22:33:39.101Z,4.55
2022-11-22T22:36:07.269Z,4.40
2022-11-22T22:38:34.922Z,4.10
2022-11-22T22:41:03.506Z,4.32
2022-11-22T22:43:36.469Z,4.82
2022-11-22T22:46:06.724Z,5.88
2022-11-22T22:48:34.666Z,6.30
2022-11-22T22:51:19.671Z,6.35
2022-11-22T22:53:47.527Z,6.72
2022-11-22T22:56:17.272Z,6.03
2022-11-22T22:58:44.907Z,6.88
2022-11-22T23:01:15.008Z,5.15
2022-11-22T23:03:42.143Z,5.95
2022-11-22T23:06:11.530Z,4.85
2022-11-22T23:08:39.552Z,4.57
2022-11-22T23:11:08.937Z,6.15
2022-11-22T23:13:38.336Z,6.80
2022-11-22T23:16:07.522Z,4.55
2022-11-22T23:18:36.476Z,5.65
2022-11-22T23:21:05.733Z,4.82
2022-11-22T23:23:33.733Z,4.55
2022-11-22T23:26:09.313Z,5.90
2022-11-22T23:28:39.770Z,4.25
2022-11-22T23:31:08.742Z,5.55
2022-11-22T23:33:36.401Z,5.85
2022-11-22T23:36:12.052Z,5.18
2022-11-22T23:38:39.646Z,5.32
2022-11-22T23:41:06.872Z,5.43
2022-11-22T23:43:34.017Z,5.10
2022-11-22T23:46:01.101Z,4.32
2022-11-22T23:48:28.383Z,5.05
2022-11-22T23:50:55.572Z,4.10
2022-11-22T23:53:22.719Z,4.38
2022-11-22T23:55:49.876Z,4.07
2022-11-22T23:58:17.022Z,4.72
